createdAt,value
2019-06-26T00:01:52.045Z,99.90
2019-06-26T00:04:20.486Z,99.90
2019-06-26T00:06:48.886Z,99.90
2019-06-26T00:09:17.279Z,99.90
2019-06-26T00:11:45.676Z,99.90
2019-06-26T00:14:14.068Z,99.90
2019-06-26T00:16:42.475Z,99.90
2019-06-26T00:19:10.855Z,99.90
2019-06-26T00:21:39.243Z,99.90
2019-06-26T00:24:07.651Z,99.90
2019-06-26T00:26:36.031Z,99.90
2019-06-26T00:29:04.424Z,99.90
2019-06-26T00:31:32.810Z,99.90
2019-06-26T00:34:01.204Z,99.90
2019-06-26T00:36:31.910Z,99.90
2019-06-26T00:39:00.313Z,99.90
2019-06-26T00:41:28.729Z,99.90
2019-06-26T00:43:57.157Z,99.90
2019-06-26T00:46:25.532Z,99.90
2019-06-26T00:48:53.933Z,99.90
2019-06-26T00:51:22.317Z,99.90
2019-06-26T00:53:52.085Z,99.90
2019-06-26T00:56:20.539Z,99.90
2019-06-26T00:58:48.943Z,99.90
2019-06-26T01:01:17.320Z,99.90
2019-06-26T01:03:46.456Z,99.90
2019-06-26T01:06:16.468Z,99.90
2019-06-26T01:08:44.856Z,99.90
2019-06-26T01:11:13.245Z,99.90
2019-06-26T01:13:57.132Z,99.90
2019-06-26T01:16:11.736Z,99.90
2019-06-26T01:18:40.133Z,99.90
2019-06-26T01:21:08.789Z,99.90
2019-06-26T01:23:37.177Z,99.90
2019-06-26T01:26:05.571Z,99.90
2019-06-26T01:28:33.955Z,99.90
2019-06-26T01:31:02.337Z,99.90
2019-06-26T01:33:30.727Z,99.90
2019-06-26T01:35:59.116Z,99.90
2019-06-26T01:38:27.504Z,99.90
2019-06-26T01:40:55.883Z,99.90
2019-06-26T01:43:24.327Z,99.90
2019-06-26T01:45:52.777Z,99.90
2019-06-26T01:48:21.165Z,99.90
2019-06-26T01:50:49.544Z,99.90
2019-06-26T01:53:17.945Z,99.90
2019-06-26T01:55:46.328Z,99.90
2019-06-26T01:58:14.976Z,99.90
2019-06-26T02:00:43.382Z,99.90
2019-06-26T02:03:11.766Z,99.90
2019-06-26T02:05:40.152Z,99.90
2019-06-26T02:08:08.543Z,99.90
2019-06-26T02:10:36.944Z,99.90
2019-06-26T02:13:05.329Z,99.90
2019-06-26T02:15:33.730Z,99.90
2019-06-26T02:18:02.116Z,99.90
2019-06-26T02:20:30.516Z,99.90
2019-06-26T02:22:58.898Z,99.90
2019-06-26T02:25:27.285Z,99.90
2019-06-26T02:27:55.665Z,99.90
2019-06-26T02:30:24.061Z,99.90
2019-06-26T02:32:52.442Z,99.90
2019-06-26T02:35:20.841Z,99.90
2019-06-26T02:37:49.226Z,99.90
2019-06-26T02:40:18.058Z,99.90
2019-06-26T02:42:46.445Z,99.90
2019-06-26T02:45:16.645Z,99.90
2019-06-26T02:47:45.032Z,99.90
2019-06-26T02:50:13.502Z,99.90
2019-06-26T02:52:41.908Z,99.90
2019-06-26T02:55:10.533Z,99.90
2019-06-26T02:57:38.908Z,99.90
2019-06-26T03:00:08.250Z,99.90
2019-06-26T03:02:36.637Z,99.90
2019-06-26T03:05:06.687Z,99.90
2019-06-26T03:07:35.140Z,99.90
2019-06-26T03:10:07.641Z,99.90
2019-06-26T03:12:36.007Z,99.90
2019-06-26T03:15:09.678Z,99.90
2019-06-26T03:17:51.027Z,99.90
2019-06-26T03:20:08.903Z,99.90
2019-06-26T03:22:37.294Z,99.90
2019-06-26T03:25:06.832Z,99.90
2019-06-26T03:27:35.208Z,99.90
2019-06-26T03:30:05.209Z,99.90
2019-06-26T03:32:33.592Z,99.90
2019-06-26T03:35:02.060Z,99.90
2019-06-26T03:37:30.464Z,99.90
2019-06-26T03:39:58.849Z,99.90
2019-06-26T03:42:27.332Z,99.90
2019-06-26T03:44:55.727Z,99.90
2019-06-26T03:47:24.127Z,99.90
2019-06-26T03:49:52.525Z,99.90
2019-06-26T03:52:20.912Z,99.90
2019-06-26T03:54:49.304Z,99.90
2019-06-26T03:57:17.717Z,99.90
2019-06-26T03:59:46.106Z,99.90
2019-06-26T04:02:14.498Z,99.90
2019-06-26T04:04:42.885Z,99.90
2019-06-26T04:07:11.554Z,99.90
2019-06-26T04:09:39.931Z,99.90
2019-06-26T04:12:08.361Z,99.90
2019-06-26T04:14:36.788Z,99.90
2019-06-26T04:17:05.185Z,99.90
2019-06-26T04:19:33.565Z,99.90
2019-06-26T04:22:01.977Z,99.90
2019-06-26T04:24:30.352Z,99.90
2019-06-26T04:26:58.761Z,99.90
2019-06-26T04:29:27.140Z,99.90
2019-06-26T04:31:55.561Z,99.90
2019-06-26T04:34:23.923Z,99.90
2019-06-26T04:36:52.331Z,99.90
2019-06-26T04:39:20.712Z,99.90
2019-06-26T04:41:49.392Z,99.90
2019-06-26T04:44:17.779Z,99.90
2019-06-26T04:46:46.199Z,99.90
2019-06-26T04:49:14.748Z,99.90
2019-06-26T04:51:43.193Z,99.90
2019-06-26T04:54:11.637Z,99.90
2019-06-26T04:56:40.023Z,99.90
2019-06-26T04:59:08.407Z,99.90
2019-06-26T05:01:36.809Z,99.90
2019-06-26T05:04:05.350Z,99.90
2019-06-26T05:06:33.725Z,99.90
2019-06-26T05:09:02.140Z,99.90
2019-06-26T05:11:30.566Z,99.90
2019-06-26T05:13:59.012Z,99.90
2019-06-26T05:16:27.737Z,99.90
2019-06-26T05:18:56.131Z,99.90
2019-06-26T05:21:24.531Z,99.90
2019-06-26T05:23:52.915Z,99.90
2019-06-26T05:26:21.585Z,99.90
2019-06-26T05:28:49.996Z,99.90
2019-06-26T05:31:18.638Z,99.90
2019-06-26T05:33:47.034Z,99.90
2019-06-26T05:36:15.421Z,99.90
2019-06-26T05:38:43.817Z,99.90
2019-06-26T05:41:12.195Z,99.90
2019-06-26T05:43:40.595Z,99.90
2019-06-26T05:46:08.987Z,99.90
2019-06-26T05:48:37.400Z,99.90
2019-06-26T05:51:05.785Z,99.90
2019-06-26T05:53:34.184Z,99.90
2019-06-26T05:56:02.635Z,99.90
2019-06-26T05:58:31.040Z,99.90
2019-06-26T06:00:59.429Z,99.90
2019-06-26T06:03:27.825Z,99.90
2019-06-26T06:05:56.221Z,99.90
2019-06-26T06:08:24.627Z,99.90
2019-06-26T06:10:53.329Z,99.90
2019-06-26T06:13:23.244Z,99.90
2019-06-26T06:15:51.625Z,99.90
2019-06-26T06:18:20.004Z,99.90
2019-06-26T06:20:48.406Z,99.90
2019-06-26T06:23:16.783Z,99.90
2019-06-26T06:25:45.179Z,99.90
2019-06-26T06:28:13.562Z,99.90
2019-06-26T06:30:42.218Z,99.90
2019-06-26T06:33:10.619Z,99.90
2019-06-26T06:35:38.983Z,99.90
2019-06-26T06:38:07.372Z,99.90
2019-06-26T06:40:35.772Z,99.90
2019-06-26T06:43:04.151Z,99.90
2019-06-26T06:45:32.882Z,99.90
2019-06-26T06:48:01.272Z,99.90
2019-06-26T06:50:29.678Z,99.90
2019-06-26T06:52:58.070Z,99.90
2019-06-26T06:55:26.485Z,99.90
2019-06-26T06:57:54.933Z,99.90
2019-06-26T07:00:23.467Z,99.90
2019-06-26T07:02:51.854Z,99.90
2019-06-26T07:05:20.330Z,99.90
2019-06-26T07:07:48.716Z,99.90
2019-06-26T07:10:17.293Z,99.90
2019-06-26T07:12:45.671Z,99.90
2019-06-26T07:15:15.681Z,99.90
2019-06-26T07:17:44.067Z,99.90
2019-06-26T07:20:13.363Z,99.90
2019-06-26T07:22:41.863Z,99.90
2019-06-26T07:25:10.795Z,99.90
2019-06-26T07:27:39.172Z,99.90
2019-06-26T07:30:08.081Z,99.90
2019-06-26T07:32:36.735Z,99.90
2019-06-26T07:35:06.164Z,99.90
2019-06-26T07:37:34.549Z,99.90
2019-06-26T07:40:03.786Z,99.90
2019-06-26T07:42:32.175Z,99.90
2019-06-26T07:45:00.568Z,99.30
2019-06-26T07:47:42.705Z,98.80
2019-06-26T07:50:00.454Z,98.50
2019-06-26T07:52:28.838Z,98.80
2019-06-26T07:54:57.224Z,98.00
2019-06-26T07:57:25.617Z,98.00
2019-06-26T07:59:54.003Z,98.10
2019-06-26T08:02:22.389Z,98.00
2019-06-26T08:04:50.774Z,98.00
2019-06-26T08:07:19.181Z,97.20
2019-06-26T08:09:47.632Z,96.20
2019-06-26T08:12:16.028Z,96.40
2019-06-26T08:14:44.410Z,96.20
2019-06-26T08:17:12.799Z,95.90
2019-06-26T08:19:41.178Z,96.90
2019-06-26T08:22:09.571Z,94.80
2019-06-26T08:24:37.952Z,94.80
2019-06-26T08:27:06.344Z,94.80
2019-06-26T08:29:34.743Z,94.70
2019-06-26T08:32:03.138Z,94.50
2019-06-26T08:34:31.518Z,94.00
2019-06-26T08:36:59.948Z,94.20
2019-06-26T08:39:28.385Z,94.10
2019-06-26T08:41:56.770Z,93.40
2019-06-26T08:44:25.153Z,93.10
2019-06-26T08:46:53.552Z,92.90
2019-06-26T08:49:26.038Z,93.60
2019-06-26T08:51:52.109Z,91.90
2019-06-26T08:54:21.865Z,92.00
2019-06-26T08:56:50.253Z,91.70
2019-06-26T08:59:18.633Z,91.40
2019-06-26T09:01:47.110Z,92.30
2019-06-26T09:04:15.484Z,92.50
2019-06-26T09:06:43.873Z,92.40
2019-06-26T09:09:12.265Z,91.40
2019-06-26T09:11:40.664Z,91.50
2019-06-26T09:14:09.094Z,91.30
2019-06-26T09:16:37.483Z,91.50
2019-06-26T09:19:05.886Z,90.60
2019-06-26T09:21:34.332Z,90.30
2019-06-26T09:24:02.725Z,90.00
2019-06-26T09:26:31.098Z,90.00
2019-06-26T09:28:59.492Z,90.60
2019-06-26T09:31:27.883Z,88.00
2019-06-26T09:33:56.270Z,86.80
2019-06-26T09:36:24.644Z,84.40
2019-06-26T09:38:53.048Z,84.30
2019-06-26T09:41:21.424Z,82.60
2019-06-26T09:43:49.816Z,81.60
2019-06-26T09:46:18.207Z,79.70
2019-06-26T09:48:52.710Z,80.80
2019-06-26T09:51:16.772Z,79.70
2019-06-26T09:53:47.751Z,78.30
2019-06-26T09:56:15.426Z,75.60
2019-06-26T09:58:43.840Z,75.50
2019-06-26T10:01:12.213Z,75.20
2019-06-26T10:03:40.611Z,75.20
2019-06-26T10:06:08.992Z,75.80
2019-06-26T10:08:37.387Z,74.30
2019-06-26T10:11:06.170Z,73.20
2019-06-26T10:13:34.556Z,71.80
2019-06-26T10:16:02.948Z,68.50
2019-06-26T10:18:31.338Z,64.80
2019-06-26T10:20:59.720Z,65.40
2019-06-26T10:23:28.100Z,64.70
2019-06-26T10:25:56.480Z,63.60
2019-06-26T10:28:24.875Z,65.30
2019-06-26T10:30:53.258Z,64.10
2019-06-26T10:33:21.655Z,65.80
2019-06-26T10:35:50.038Z,58.60
2019-06-26T10:38:18.435Z,62.40
2019-06-26T10:40:46.817Z,60.10
2019-06-26T10:43:15.226Z,59.50
2019-06-26T10:45:43.673Z,58.30
2019-06-26T10:48:12.054Z,57.70
2019-06-26T10:50:49.919Z,57.70
2019-06-26T10:53:10.560Z,57.30
2019-06-26T10:55:38.946Z,57.70
2019-06-26T10:58:07.335Z,57.90
2019-06-26T11:00:36.070Z,56.80
2019-06-26T11:03:04.594Z,58.00
2019-06-26T11:05:32.986Z,58.60
2019-06-26T11:08:01.364Z,58.70
2019-06-26T11:10:29.764Z,58.00
2019-06-26T11:12:58.139Z,58.10
2019-06-26T11:15:26.683Z,56.60
2019-06-26T11:17:55.110Z,57.10
2019-06-26T11:20:23.565Z,58.10
2019-06-26T11:22:51.939Z,58.80
2019-06-26T11:25:21.244Z,57.50
2019-06-26T11:27:48.837Z,58.70
2019-06-26T11:30:18.469Z,58.90
2019-06-26T11:32:46.858Z,57.90
2019-06-26T11:35:15.488Z,56.10
2019-06-26T11:37:43.941Z,56.30
2019-06-26T11:40:14.401Z,56.40
2019-06-26T11:42:42.786Z,57.00
2019-06-26T11:45:11.439Z,58.70
2019-06-26T11:47:39.817Z,58.40
2019-06-26T11:50:10.184Z,57.10
2019-06-26T11:52:38.845Z,57.00
2019-06-26T11:55:11.084Z,56.80
2019-06-26T11:57:39.823Z,57.40
2019-06-26T12:00:11.022Z,57.40
2019-06-26T12:02:40.747Z,59.00
2019-06-26T12:05:09.668Z,56.50
2019-06-26T12:07:38.331Z,57.10
2019-06-26T12:10:10.322Z,56.80
2019-06-26T12:12:38.876Z,56.40
2019-06-26T12:15:07.694Z,55.20
2019-06-26T12:17:36.133Z,55.00
2019-06-26T12:20:17.679Z,54.30
2019-06-26T12:22:36.915Z,54.40
2019-06-26T12:25:06.576Z,57.10
2019-06-26T12:27:34.996Z,55.20
2019-06-26T12:30:05.017Z,55.40
2019-06-26T12:32:41.872Z,53.90
2019-06-26T12:35:06.912Z,53.60
2019-06-26T12:37:37.905Z,54.70
2019-06-26T12:40:06.967Z,51.00
2019-06-26T12:42:36.746Z,52.10
2019-06-26T12:45:09.078Z,52.40
2019-06-26T12:47:37.466Z,50.90
2019-06-26T12:50:07.505Z,50.90
2019-06-26T12:52:35.963Z,50.50
2019-06-26T12:55:05.897Z,50.40
2019-06-26T12:57:34.831Z,51.20
2019-06-26T13:00:05.134Z,50.50
2019-06-26T13:02:33.545Z,50.10
2019-06-26T13:05:02.208Z,51.00
2019-06-26T13:07:30.944Z,51.60
2019-06-26T13:09:59.332Z,51.50
2019-06-26T13:12:27.795Z,51.60
2019-06-26T13:14:56.182Z,51.60
2019-06-26T13:17:24.575Z,53.10
2019-06-26T13:19:52.956Z,53.10
2019-06-26T13:22:21.350Z,53.20
2019-06-26T13:24:49.764Z,53.00
2019-06-26T13:27:18.468Z,53.30
2019-06-26T13:29:46.846Z,53.90
2019-06-26T13:32:16.737Z,53.70
2019-06-26T13:34:45.484Z,52.10
2019-06-26T13:37:13.876Z,52.20
2019-06-26T13:39:42.522Z,51.60
2019-06-26T13:42:10.933Z,51.70
2019-06-26T13:44:39.303Z,50.50
2019-06-26T13:47:07.693Z,51.10
2019-06-26T13:49:36.092Z,51.40
2019-06-26T13:52:04.644Z,49.50
2019-06-26T13:54:33.016Z,49.10
2019-06-26T13:57:01.695Z,48.60
2019-06-26T13:59:30.094Z,48.70
2019-06-26T14:01:58.479Z,49.20
2019-06-26T14:04:26.943Z,50.60
2019-06-26T14:06:55.336Z,50.50
2019-06-26T14:09:23.738Z,49.00
2019-06-26T14:11:52.115Z,48.60
2019-06-26T14:14:22.161Z,51.90
2019-06-26T14:16:50.779Z,52.90
2019-06-26T14:19:19.180Z,50.20
2019-06-26T14:21:47.552Z,48.90
2019-06-26T14:24:15.959Z,48.10
2019-06-26T14:26:44.346Z,48.50
2019-06-26T14:29:20.930Z,50.10
2019-06-26T14:31:42.852Z,49.80
2019-06-26T14:34:11.258Z,50.50
2019-06-26T14:36:39.648Z,50.80
2019-06-26T14:39:08.354Z,50.40
2019-06-26T14:41:39.090Z,51.40
2019-06-26T14:44:06.856Z,51.10
2019-06-26T14:46:35.239Z,51.30
2019-06-26T14:49:03.672Z,51.90
2019-06-26T14:51:43.545Z,53.40
2019-06-26T14:54:02.174Z,52.60
2019-06-26T14:56:30.555Z,53.60
2019-06-26T14:58:58.951Z,53.20
2019-06-26T15:01:27.369Z,52.00
2019-06-26T15:03:55.817Z,52.80
2019-06-26T15:06:24.199Z,51.90
2019-06-26T15:08:52.599Z,52.40
2019-06-26T15:11:20.993Z,52.50
2019-06-26T15:13:49.411Z,52.10
2019-06-26T15:16:17.792Z,53.60
2019-06-26T15:18:46.180Z,54.40
2019-06-26T15:21:14.566Z,55.00
2019-06-26T15:23:42.939Z,52.10
2019-06-26T15:26:11.410Z,53.20
2019-06-26T15:28:39.814Z,54.20
2019-06-26T15:31:08.191Z,52.90
2019-06-26T15:33:36.862Z,53.10
2019-06-26T15:36:05.342Z,52.30
2019-06-26T15:38:33.716Z,52.90
2019-06-26T15:41:02.118Z,52.60
2019-06-26T15:43:30.500Z,51.70
2019-06-26T15:45:58.927Z,52.00
2019-06-26T15:48:28.679Z,52.10
2019-06-26T15:50:57.056Z,51.00
2019-06-26T15:53:25.451Z,50.70
2019-06-26T15:55:53.867Z,50.20
2019-06-26T15:58:22.276Z,51.00
2019-06-26T16:00:50.664Z,51.00
2019-06-26T16:03:19.318Z,51.70
2019-06-26T16:05:47.708Z,52.30
2019-06-26T16:08:16.099Z,52.20
2019-06-26T16:10:44.507Z,52.00
2019-06-26T16:13:12.896Z,52.90
2019-06-26T16:15:42.536Z,53.80
2019-06-26T16:18:24.535Z,54.30
2019-06-26T16:20:52.931Z,54.10
2019-06-26T16:23:21.320Z,55.20
2019-06-26T16:25:49.723Z,55.30
2019-06-26T16:28:18.115Z,54.50
2019-06-26T16:30:46.852Z,54.90
2019-06-26T16:33:15.240Z,55.30
2019-06-26T16:35:43.700Z,55.30
2019-06-26T16:38:12.163Z,54.80
2019-06-26T16:40:40.604Z,56.20
2019-06-26T16:43:08.991Z,56.00
2019-06-26T16:45:37.414Z,56.50
2019-06-26T16:48:05.804Z,56.80
2019-06-26T16:50:34.220Z,57.00
2019-06-26T16:53:02.613Z,57.20
2019-06-26T16:55:31.008Z,57.50
2019-06-26T16:57:59.391Z,57.70
2019-06-26T17:00:27.788Z,58.10
2019-06-26T17:02:56.192Z,58.20
2019-06-26T17:05:24.568Z,58.70
2019-06-26T17:07:52.969Z,59.20
2019-06-26T17:10:21.498Z,59.40
2019-06-26T17:12:49.960Z,59.70
2019-06-26T17:15:18.776Z,59.60
2019-06-26T17:17:47.170Z,60.00
2019-06-26T17:20:15.812Z,60.10
2019-06-26T17:22:44.205Z,60.10
2019-06-26T17:25:12.923Z,60.20
2019-06-26T17:27:41.349Z,60.30
2019-06-26T17:30:10.672Z,60.30
2019-06-26T17:32:39.065Z,60.00
2019-06-26T17:35:08.392Z,59.80
2019-06-26T17:37:36.826Z,60.10
2019-06-26T17:40:06.287Z,60.30
2019-06-26T17:42:36.068Z,61.50
2019-06-26T17:45:05.209Z,61.00
2019-06-26T17:47:33.608Z,60.90
2019-06-26T17:50:03.262Z,61.90
2019-06-26T17:52:34.543Z,62.20
2019-06-26T17:55:00.994Z,62.70
2019-06-26T17:57:29.403Z,63.50
2019-06-26T17:59:57.805Z,63.30
2019-06-26T18:02:26.210Z,63.80
2019-06-26T18:04:54.603Z,64.30
2019-06-26T18:07:23.005Z,64.00
2019-06-26T18:09:51.402Z,64.10
2019-06-26T18:12:19.801Z,64.70
2019-06-26T18:14:48.179Z,65.10
2019-06-26T18:17:22.185Z,65.60
2019-06-26T18:19:46.695Z,66.10
2019-06-26T18:22:15.428Z,66.50
2019-06-26T18:24:43.833Z,66.80
2019-06-26T18:27:12.232Z,67.10
2019-06-26T18:29:40.705Z,67.80
2019-06-26T18:32:09.102Z,68.40
2019-06-26T18:34:37.504Z,68.50
2019-06-26T18:37:05.887Z,68.80
2019-06-26T18:39:34.295Z,68.70
2019-06-26T18:42:02.679Z,69.00
2019-06-26T18:44:31.092Z,69.10
2019-06-26T18:46:59.475Z,68.90
2019-06-26T18:49:27.871Z,69.00
2019-06-26T18:51:56.264Z,69.50
2019-06-26T18:54:24.665Z,70.60
2019-06-26T18:56:53.064Z,69.40
2019-06-26T18:59:21.469Z,70.60
2019-06-26T19:01:49.857Z,69.70
2019-06-26T19:04:18.243Z,70.20
2019-06-26T19:06:46.643Z,70.40
2019-06-26T19:09:15.048Z,70.30
2019-06-26T19:11:43.518Z,70.30
2019-06-26T19:14:11.925Z,71.10
2019-06-26T19:16:40.320Z,71.20
2019-06-26T19:19:12.125Z,71.60
2019-06-26T19:21:38.837Z,72.00
2019-06-26T19:24:10.361Z,71.80
2019-06-26T19:26:37.442Z,72.60
2019-06-26T19:29:05.809Z,72.80
2019-06-26T19:31:35.472Z,74.50
2019-06-26T19:34:04.006Z,75.30
2019-06-26T19:36:45.880Z,75.40
2019-06-26T19:39:04.251Z,75.90
2019-06-26T19:41:32.663Z,76.20
2019-06-26T19:44:01.053Z,75.40
2019-06-26T19:46:29.448Z,75.50
2019-06-26T19:48:57.912Z,77.10
2019-06-26T19:51:26.323Z,79.00
2019-06-26T19:53:54.711Z,77.70
2019-06-26T19:56:23.190Z,76.40
2019-06-26T19:58:51.574Z,77.50
2019-06-26T20:01:21.243Z,77.40
2019-06-26T20:03:49.647Z,78.80
2019-06-26T20:06:18.057Z,79.70
2019-06-26T20:08:54.436Z,79.30
2019-06-26T20:11:16.574Z,81.20
2019-06-26T20:13:44.960Z,80.60
2019-06-26T20:16:13.375Z,80.60
2019-06-26T20:18:41.760Z,80.20
2019-06-26T20:21:10.167Z,81.10
2019-06-26T20:23:38.556Z,82.30
2019-06-26T20:26:06.967Z,82.80
2019-06-26T20:28:35.378Z,83.50
2019-06-26T20:31:03.846Z,83.90
2019-06-26T20:33:32.235Z,85.20
2019-06-26T20:36:02.117Z,86.40
2019-06-26T20:38:30.519Z,84.50
2019-06-26T20:40:58.931Z,83.70
2019-06-26T20:43:27.334Z,83.60
2019-06-26T20:45:55.724Z,85.80
2019-06-26T20:48:24.125Z,86.50
2019-06-26T20:50:52.520Z,86.70
2019-06-26T20:53:20.908Z,85.70
2019-06-26T20:55:49.304Z,85.60
2019-06-26T20:58:17.683Z,88.30
2019-06-26T21:00:46.394Z,89.20
2019-06-26T21:03:14.795Z,90.20
2019-06-26T21:05:43.171Z,90.30
2019-06-26T21:08:11.591Z,90.20
2019-06-26T21:10:40.002Z,90.20
2019-06-26T21:13:10.033Z,90.80
2019-06-26T21:15:37.641Z,89.80
2019-06-26T21:18:06.063Z,91.20
2019-06-26T21:20:34.448Z,91.40
2019-06-26T21:23:02.843Z,91.20
2019-06-26T21:25:31.249Z,91.80
2019-06-26T21:27:59.656Z,92.00
2019-06-26T21:30:28.040Z,92.40
2019-06-26T21:32:56.440Z,92.20
2019-06-26T21:35:24.828Z,91.90
2019-06-26T21:37:53.221Z,92.50
2019-06-26T21:40:21.620Z,92.10
2019-06-26T21:42:50.022Z,92.20
2019-06-26T21:45:20.977Z,91.60
2019-06-26T21:47:49.371Z,92.50
2019-06-26T21:50:17.759Z,92.60
2019-06-26T21:52:46.174Z,92.50
2019-06-26T21:55:14.556Z,92.50
2019-06-26T21:57:42.968Z,92.70
2019-06-26T22:00:13.343Z,93.20
2019-06-26T22:02:41.750Z,92.90
2019-06-26T22:05:11.935Z,93.50
2019-06-26T22:07:40.404Z,93.20
2019-06-26T22:10:09.335Z,94.10
2019-06-26T22:12:37.727Z,93.50
2019-06-26T22:15:06.576Z,93.50
2019-06-26T22:17:35.393Z,94.20
2019-06-26T22:20:09.793Z,93.70
2019-06-26T22:22:36.772Z,94.10
2019-06-26T22:25:08.496Z,93.70
2019-06-26T22:27:36.956Z,94.30
2019-06-26T22:30:07.257Z,94.70
2019-06-26T22:32:37.088Z,94.40
2019-06-26T22:35:06.463Z,95.60
2019-06-26T22:37:34.844Z,94.40
2019-06-26T22:40:04.291Z,96.00
2019-06-26T22:42:32.717Z,95.00
2019-06-26T22:45:01.132Z,96.60
2019-06-26T22:47:29.514Z,96.70
2019-06-26T22:49:57.916Z,96.60
2019-06-26T22:52:26.308Z,96.80
2019-06-26T22:54:56.091Z,96.20
2019-06-26T22:57:24.471Z,96.40
2019-06-26T22:59:52.877Z,96.90
2019-06-26T23:02:21.265Z,95.80
2019-06-26T23:04:49.681Z,96.30
2019-06-26T23:07:18.070Z,97.50
2019-06-26T23:09:46.577Z,97.10
2019-06-26T23:12:14.973Z,97.90
2019-06-26T23:14:43.384Z,98.00
2019-06-26T23:17:11.767Z,98.10
2019-06-26T23:19:40.456Z,98.50
2019-06-26T23:22:08.844Z,97.90
2019-06-26T23:24:37.525Z,97.40
2019-06-26T23:27:05.945Z,98.00
2019-06-26T23:29:34.388Z,97.60
2019-06-26T23:32:03.447Z,98.10
2019-06-26T23:34:32.043Z,98.80
2019-06-26T23:37:00.434Z,98.70
2019-06-26T23:39:28.829Z,99.20
2019-06-26T23:41:57.222Z,98.50
2019-06-26T23:44:25.626Z,99.00
2019-06-26T23:46:54.032Z,98.90
2019-06-26T23:49:41.776Z,98.90
2019-06-26T23:52:10.164Z,98.90
2019-06-26T23:54:38.576Z,99.30
2019-06-26T23:57:06.983Z,99.90
2019-06-26T23:59:35.389Z,99.90
